createdAt,value
2017-04-15T00:00:17.469Z,53.71
2017-04-15T00:00:39.186Z,53.70
2017-04-15T00:01:01.032Z,53.54
2017-04-15T00:01:22.843Z,53.65
2017-04-15T00:01:44.668Z,53.74
2017-04-15T00:02:06.415Z,53.80
2017-04-15T00:02:28.197Z,54.08
2017-04-15T00:02:49.909Z,54.27
2017-04-15T00:03:11.654Z,54.42
2017-04-15T00:03:38.219Z,54.52
2017-04-15T00:03:59.979Z,54.51
2017-04-15T00:04:24.117Z,54.14
2017-04-15T00:04:45.812Z,53.71
2017-04-15T00:05:17.067Z,53.56
2017-04-15T00:05:38.856Z,53.68
2017-04-15T00:06:00.650Z,53.75
2017-04-15T00:06:31.917Z,54.00
2017-04-15T00:06:53.718Z,54.11
2017-04-15T00:07:20.209Z,54.27
2017-04-15T00:07:41.917Z,54.37
2017-04-15T00:08:08.467Z,54.58
2017-04-15T00:08:30.186Z,54.50
2017-04-15T00:08:56.683Z,54.56
2017-04-15T00:09:18.390Z,54.41
2017-04-15T00:09:49.659Z,54.49
2017-04-15T00:10:11.465Z,54.56
2017-04-15T00:10:37.954Z,54.50
2017-04-15T00:10:59.672Z,54.47
2017-04-15T00:11:30.941Z,54.58
2017-04-15T00:11:52.730Z,54.50
2017-04-15T00:12:19.239Z,54.50
2017-04-15T00:12:40.977Z,54.60
2017-04-15T00:13:12.353Z,54.49
2017-04-15T00:13:34.012Z,54.52
2017-04-15T00:13:55.737Z,54.67
2017-04-15T00:14:17.450Z,54.74
2017-04-15T00:14:39.233Z,54.55
2017-04-15T00:15:05.711Z,54.88
2017-04-15T00:15:27.416Z,54.63
2017-04-15T00:15:58.799Z,54.88
2017-04-15T00:16:20.463Z,54.94
2017-04-15T00:16:51.753Z,55.09
2017-04-15T00:17:13.529Z,54.99
2017-04-15T00:17:44.842Z,54.86
2017-04-15T00:18:06.519Z,54.92
2017-04-15T00:18:35.579Z,55.12
2017-04-15T00:18:57.288Z,54.98
2017-04-15T00:19:28.574Z,54.95
2017-04-15T00:19:50.363Z,54.75
2017-04-15T00:20:14.887Z,54.74
2017-04-15T00:20:36.615Z,54.55
2017-04-15T00:20:58.389Z,54.44
2017-04-15T00:21:24.968Z,54.45
2017-04-15T00:21:46.702Z,54.44
2017-04-15T00:22:17.984Z,55.04
2017-04-15T00:22:39.778Z,55.53
2017-04-15T00:23:01.535Z,55.74
2017-04-15T00:23:28.043Z,56.35
2017-04-15T00:23:49.851Z,56.49
2017-04-15T00:24:11.577Z,56.39
2017-04-15T00:24:38.070Z,56.26
2017-04-15T00:24:59.798Z,56.58
2017-04-15T00:25:21.601Z,56.21
2017-04-15T00:25:43.302Z,55.99
2017-04-15T00:26:05.041Z,56.08
2017-04-15T00:26:26.739Z,56.06
2017-04-15T00:26:53.506Z,56.36
2017-04-15T00:27:15.223Z,56.30
2017-04-15T00:27:41.713Z,56.42
2017-04-15T00:28:03.416Z,56.34
2017-04-15T00:28:30.000Z,56.36
2017-04-15T00:28:51.709Z,56.17
2017-04-15T00:29:18.215Z,56.08
2017-04-15T00:29:39.940Z,56.15
2017-04-15T00:30:01.777Z,56.45
2017-04-15T00:30:28.259Z,56.90
2017-04-15T00:30:49.972Z,56.80
2017-04-15T00:31:16.534Z,56.86
2017-04-15T00:31:38.242Z,57.02
2017-04-15T00:32:40.835Z,56.43
2017-04-15T00:33:48.152Z,56.51
2017-04-15T00:34:09.939Z,56.59
2017-04-15T00:34:41.204Z,56.57
2017-04-15T00:35:02.916Z,56.47
2017-04-15T00:35:27.152Z,56.25
2017-04-15T00:35:48.879Z,56.00
2017-04-15T00:36:20.145Z,56.08
2017-04-15T00:36:41.959Z,56.22
2017-04-15T00:37:03.697Z,56.16
2017-04-15T00:37:30.184Z,56.19
2017-04-15T00:37:51.997Z,56.32
2017-04-15T00:38:18.473Z,56.25
2017-04-15T00:38:40.202Z,56.25
2017-04-15T00:39:01.950Z,56.11
2017-04-15T00:39:23.743Z,56.08
2017-04-15T00:39:45.459Z,56.14
2017-04-15T00:40:07.205Z,56.05
2017-04-15T00:40:38.476Z,55.88
2017-04-15T00:41:31.556Z,55.77
2017-04-15T00:41:58.101Z,55.58
2017-04-15T00:42:19.883Z,55.70
2017-04-15T00:42:41.592Z,55.80
2017-04-15T00:43:12.854Z,55.88
2017-04-15T00:43:34.883Z,56.09
2017-04-15T00:44:37.503Z,55.82
2017-04-15T00:44:59.232Z,55.78
2017-04-15T00:45:30.552Z,55.87
2017-04-15T00:45:52.338Z,55.97
2017-04-15T00:46:14.064Z,56.28
2017-04-15T00:46:45.334Z,56.51
2017-04-15T00:47:09.494Z,56.42
2017-04-15T00:47:35.987Z,56.53
2017-04-15T00:47:57.724Z,56.33
2017-04-15T00:48:19.512Z,56.26
2017-04-15T00:48:46.017Z,55.92
2017-04-15T00:49:07.739Z,55.91
2017-04-15T00:49:34.328Z,55.89
2017-04-15T00:49:56.043Z,55.81
2017-04-15T00:50:22.529Z,55.64
2017-04-15T00:50:46.609Z,55.46
2017-04-15T00:51:16.046Z,55.28
2017-04-15T00:51:47.203Z,55.60
2017-04-15T00:52:09.024Z,55.70
2017-04-15T00:52:35.659Z,55.94
2017-04-15T00:52:57.450Z,56.00
2017-04-15T00:53:19.241Z,55.90
2017-04-15T00:54:19.551Z,56.47
2017-04-15T00:54:41.348Z,56.54
2017-04-15T00:55:03.048Z,56.82
2017-04-15T00:55:24.772Z,56.47
2017-04-15T00:55:46.468Z,56.35
2017-04-15T00:56:08.181Z,56.43
2017-04-15T00:56:29.974Z,56.38
2017-04-15T00:56:51.666Z,56.39
2017-04-15T00:57:18.136Z,56.48
2017-04-15T00:57:39.987Z,56.49
2017-04-15T00:58:06.473Z,56.42
2017-04-15T00:58:28.182Z,56.17
2017-04-15T00:58:54.646Z,55.96
2017-04-15T00:59:16.416Z,55.84
2017-04-15T00:59:42.907Z,55.81
2017-04-15T01:00:04.642Z,56.31
2017-04-15T01:00:26.344Z,56.52
2017-04-15T01:00:48.044Z,56.53
2017-04-15T01:01:09.759Z,56.67
2017-04-15T01:01:31.489Z,56.71
2017-04-15T01:01:53.279Z,56.61
2017-04-15T01:02:14.986Z,56.35
2017-04-15T01:02:36.670Z,56.20
2017-04-15T01:02:58.363Z,56.01
2017-04-15T01:03:56.663Z,56.45
2017-04-15T01:04:59.171Z,56.16
2017-04-15T01:05:20.862Z,56.35
2017-04-15T01:05:42.660Z,56.43
2017-04-15T01:06:09.131Z,56.47
2017-04-15T01:06:30.863Z,56.58
2017-04-15T01:07:35.687Z,56.30
2017-04-15T01:07:57.553Z,56.31
2017-04-15T01:08:24.027Z,56.15
2017-04-15T01:08:45.815Z,56.35
2017-04-15T01:09:07.511Z,56.47
2017-04-15T01:09:36.412Z,56.32
2017-04-15T01:10:02.884Z,56.43
2017-04-15T01:10:24.683Z,56.25
2017-04-15T01:10:46.376Z,56.49
2017-04-15T01:11:15.485Z,56.45
2017-04-15T01:11:37.283Z,56.59
2017-04-15T01:12:03.772Z,56.51
2017-04-15T01:12:25.466Z,56.74
2017-04-15T01:12:47.252Z,56.79
2017-04-15T01:13:08.975Z,56.75
2017-04-15T01:13:30.680Z,56.54
2017-04-15T01:13:57.244Z,56.50
2017-04-15T01:14:21.177Z,56.37
2017-04-15T01:14:42.851Z,56.26
2017-04-15T01:15:04.555Z,56.35
2017-04-15T01:15:26.267Z,56.39
2017-04-15T01:15:47.990Z,56.35
2017-04-15T01:16:09.689Z,56.60
2017-04-15T01:16:31.386Z,56.66
2017-04-15T01:16:58.056Z,56.49
2017-04-15T01:17:19.748Z,56.40
2017-04-15T01:17:41.441Z,56.54
2017-04-15T01:18:12.700Z,56.73
2017-04-15T01:18:34.520Z,56.85
2017-04-15T01:18:58.852Z,57.13
2017-04-15T01:19:20.555Z,57.23
2017-04-15T01:19:51.799Z,57.05
2017-04-15T01:20:13.583Z,57.03
2017-04-15T01:20:40.065Z,57.14
2017-04-15T01:21:04.752Z,57.29
2017-04-15T01:21:26.384Z,57.23
2017-04-15T01:21:48.103Z,57.48
2017-04-15T01:22:09.816Z,57.50
2017-04-15T01:22:41.076Z,57.40
2017-04-15T01:23:02.768Z,57.48
2017-04-15T01:23:34.117Z,57.37
2017-04-15T01:23:55.794Z,57.39
2017-04-15T01:24:17.602Z,57.33
2017-04-15T01:24:39.310Z,57.26
2017-04-15T01:25:01.016Z,57.47
2017-04-15T01:25:22.715Z,57.46
2017-04-15T01:25:44.498Z,57.46
2017-04-15T01:26:06.214Z,57.70
2017-04-15T01:26:27.910Z,57.76
2017-04-15T01:26:49.646Z,57.82
2017-04-15T01:27:11.418Z,57.70
2017-04-15T01:27:33.130Z,57.60
2017-04-15T01:27:54.840Z,57.50
2017-04-15T01:28:16.563Z,57.23
2017-04-15T01:28:38.349Z,57.14
2017-04-15T01:29:02.521Z,57.01
2017-04-15T01:29:26.348Z,57.04
2017-04-15T01:29:47.898Z,57.15
2017-04-15T01:30:14.373Z,57.20
2017-04-15T01:30:36.181Z,57.19
2017-04-15T01:30:57.887Z,57.32
2017-04-15T01:31:19.591Z,57.41
2017-04-15T01:31:41.383Z,57.51
2017-04-15T01:32:12.657Z,57.38
2017-04-15T01:32:34.324Z,57.40
2017-04-15T01:32:58.854Z,57.66
2017-04-15T01:33:20.684Z,58.03
2017-04-15T01:33:42.369Z,57.94
2017-04-15T01:34:04.082Z,57.82
2017-04-15T01:34:25.899Z,57.72
2017-04-15T01:34:47.593Z,57.85
2017-04-15T01:35:14.069Z,57.86
2017-04-15T01:35:35.787Z,57.76
2017-04-15T01:36:00.188Z,57.83
2017-04-15T01:36:21.893Z,58.05
2017-04-15T01:36:43.611Z,58.28
2017-04-15T01:37:05.319Z,58.28
2017-04-15T01:37:27.036Z,58.21
2017-04-15T01:37:58.377Z,58.14
2017-04-15T01:38:20.103Z,58.32
2017-04-15T01:38:41.910Z,58.17
2017-04-15T01:39:08.418Z,57.83
2017-04-15T01:39:30.108Z,57.69
2017-04-15T01:39:51.819Z,57.52
2017-04-15T01:40:23.159Z,57.72
2017-04-15T01:40:44.863Z,57.89
2017-04-15T01:41:06.565Z,57.88
2017-04-15T01:41:28.355Z,58.26
2017-04-15T01:41:52.469Z,58.23
2017-04-15T01:42:18.957Z,58.31
2017-04-15T01:42:40.784Z,58.55
2017-04-15T01:43:12.024Z,58.42
2017-04-15T01:43:33.858Z,58.37
2017-04-15T01:44:00.343Z,58.49
2017-04-15T01:44:22.059Z,58.61
2017-04-15T01:44:43.755Z,58.53
2017-04-15T01:45:12.929Z,58.60
2017-04-15T01:45:39.326Z,58.72
2017-04-15T01:46:01.024Z,58.58
2017-04-15T01:46:22.725Z,58.84
2017-04-15T01:46:44.536Z,58.98
2017-04-15T01:47:47.038Z,58.84
2017-04-15T01:48:08.832Z,58.72
2017-04-15T01:48:33.349Z,58.51
2017-04-15T01:48:55.043Z,58.51
2017-04-15T01:49:16.740Z,58.27
2017-04-15T01:49:38.556Z,58.14
2017-04-15T01:50:03.077Z,58.19
2017-04-15T01:50:24.776Z,57.77
2017-04-15T01:50:51.249Z,57.66
2017-04-15T01:51:12.948Z,57.80
2017-04-15T01:51:34.659Z,57.86
2017-04-15T01:52:01.150Z,57.78
2017-04-15T01:52:22.974Z,57.83
2017-04-15T01:52:49.468Z,57.75
2017-04-15T01:53:13.453Z,57.77
2017-04-15T01:53:42.829Z,57.71
2017-04-15T01:54:13.978Z,57.66
2017-04-15T01:54:35.645Z,57.77
2017-04-15T01:55:02.133Z,57.97
2017-04-15T01:55:26.790Z,57.87
2017-04-15T01:55:50.642Z,57.70
2017-04-15T01:56:12.352Z,57.47
2017-04-15T01:56:41.862Z,57.50
2017-04-15T01:57:03.556Z,57.27
2017-04-15T01:57:30.030Z,57.28
2017-04-15T01:57:51.746Z,57.35
2017-04-15T01:58:50.156Z,57.55
2017-04-15T01:59:21.427Z,57.71
2017-04-15T01:59:43.152Z,57.74
2017-04-15T02:00:04.835Z,57.94
2017-04-15T02:00:26.655Z,57.88
2017-04-15T02:00:48.345Z,57.72
2017-04-15T02:01:10.064Z,57.83
2017-04-15T02:01:36.538Z,57.68
2017-04-15T02:02:02.957Z,57.79
2017-04-15T02:02:24.671Z,58.23
2017-04-15T02:02:46.449Z,58.48
2017-04-15T02:03:10.363Z,58.11
2017-04-15T02:03:36.843Z,58.04
2017-04-15T02:04:00.567Z,57.89
2017-04-15T02:04:31.818Z,57.68
2017-04-15T02:04:53.551Z,57.80
2017-04-15T02:05:15.272Z,57.66
2017-04-15T02:05:44.173Z,57.55
2017-04-15T02:06:06.004Z,57.55
2017-04-15T02:07:10.916Z,57.38
2017-04-15T02:07:32.727Z,57.39
2017-04-15T02:08:33.237Z,57.15
2017-04-15T02:09:33.695Z,57.46
2017-04-15T02:09:55.290Z,57.41
2017-04-15T02:10:17.104Z,57.37
2017-04-15T02:10:38.796Z,57.21
2017-04-15T02:11:00.494Z,57.58
2017-04-15T02:11:22.193Z,57.88
2017-04-15T02:11:43.899Z,58.08
2017-04-15T02:12:05.603Z,57.93
2017-04-15T02:12:32.184Z,58.16
2017-04-15T02:12:53.909Z,58.05
2017-04-15T02:13:15.615Z,58.12
2017-04-15T02:13:37.432Z,58.10
2017-04-15T02:13:59.155Z,58.22
2017-04-15T02:14:20.871Z,58.25
2017-04-15T02:14:49.358Z,58.50
2017-04-15T02:15:15.922Z,58.48
2017-04-15T02:15:44.737Z,58.65
2017-04-15T02:16:06.315Z,58.65
2017-04-15T02:16:37.579Z,58.50
2017-04-15T02:16:59.293Z,58.56
2017-04-15T02:17:30.570Z,58.35
2017-04-15T02:17:52.271Z,58.44
2017-04-15T02:18:23.530Z,58.41
2017-04-15T02:18:45.218Z,58.38
2017-04-15T02:19:06.925Z,58.33
2017-04-15T02:19:28.668Z,58.15
2017-04-15T02:19:50.556Z,58.07
2017-04-15T02:20:21.808Z,57.83
2017-04-15T02:20:43.517Z,57.78
2017-04-15T02:21:10.014Z,57.71
2017-04-15T02:21:31.730Z,57.76
2017-04-15T02:21:55.449Z,57.70
2017-04-15T02:22:21.925Z,57.61
2017-04-15T02:22:48.400Z,57.47
2017-04-15T02:23:10.302Z,57.65
2017-04-15T02:23:36.877Z,57.79
2017-04-15T02:24:03.217Z,57.56
2017-04-15T02:25:03.660Z,57.24
2017-04-15T02:25:25.247Z,57.37
2017-04-15T02:25:54.392Z,57.28
2017-04-15T02:26:27.780Z,57.04
2017-04-15T02:26:59.056Z,57.29
2017-04-15T02:27:20.821Z,57.23
2017-04-15T02:27:45.488Z,57.11
2017-04-15T02:28:07.129Z,57.01
2017-04-15T02:28:28.851Z,57.23
2017-04-15T02:29:33.980Z,57.54
2017-04-15T02:29:57.695Z,57.43
2017-04-15T02:30:19.398Z,57.20
2017-04-15T02:30:47.908Z,57.24
2017-04-15T02:31:09.649Z,57.24
2017-04-15T02:31:33.563Z,57.11
2017-04-15T02:31:55.276Z,57.24
2017-04-15T02:32:57.786Z,57.20
2017-04-15T02:33:21.609Z,57.19
2017-04-15T02:33:43.332Z,57.09
2017-04-15T02:34:07.671Z,57.09
2017-04-15T02:34:36.730Z,57.12
2017-04-15T02:34:58.283Z,57.63
2017-04-15T02:35:22.709Z,57.74
2017-04-15T02:35:47.288Z,58.05
2017-04-15T02:36:09.001Z,58.24
2017-04-15T02:36:30.699Z,58.06
2017-04-15T02:36:52.418Z,57.76
2017-04-15T02:37:23.673Z,57.34
2017-04-15T02:37:47.794Z,57.49
2017-04-15T02:38:12.315Z,57.77
2017-04-15T02:38:34.005Z,57.74
2017-04-15T02:38:55.719Z,57.82
2017-04-15T02:39:22.203Z,57.80
2017-04-15T02:39:46.766Z,58.06
2017-04-15T02:40:13.182Z,58.10
2017-04-15T02:40:42.142Z,58.20
2017-04-15T02:41:03.852Z,58.33
2017-04-15T02:41:25.581Z,58.47
2017-04-15T02:41:52.062Z,58.51
2017-04-15T02:42:13.869Z,58.34
2017-04-15T02:42:45.139Z,58.66
2017-04-15T02:43:06.818Z,58.67
2017-04-15T02:43:35.324Z,58.63
2017-04-15T02:43:59.262Z,58.56
2017-04-15T02:44:23.710Z,58.63
2017-04-15T02:44:59.930Z,58.71
2017-04-15T02:45:26.292Z,58.60
2017-04-15T02:45:52.774Z,58.44
2017-04-15T02:46:16.496Z,58.34
2017-04-15T02:46:38.202Z,58.51
2017-04-15T02:47:04.561Z,58.38
2017-04-15T02:47:26.238Z,58.29
2017-04-15T02:47:55.714Z,58.08
2017-04-15T02:48:19.848Z,57.80
2017-04-15T02:48:49.165Z,57.76
2017-04-15T02:49:51.682Z,57.56
2017-04-15T02:50:18.369Z,57.58
2017-04-15T02:50:46.574Z,57.25
2017-04-15T02:51:16.081Z,57.04
2017-04-15T02:51:45.364Z,57.05
2017-04-15T02:52:10.850Z,57.18
2017-04-15T02:52:35.393Z,57.14
2017-04-15T02:52:59.983Z,57.29
2017-04-15T02:54:06.198Z,57.35
2017-04-15T02:54:32.231Z,57.18
2017-04-15T02:54:56.475Z,57.15
2017-04-15T02:55:25.797Z,57.33
2017-04-15T02:55:48.777Z,57.90
2017-04-15T02:56:21.006Z,58.02
2017-04-15T02:56:42.672Z,57.86
2017-04-15T02:57:04.402Z,58.09
2017-04-15T02:57:43.512Z,58.37
2017-04-15T02:58:16.389Z,58.56
2017-04-15T02:58:43.856Z,58.33
2017-04-15T02:59:12.178Z,58.00
2017-04-15T02:59:36.379Z,58.11
2017-04-15T03:00:02.735Z,58.16
2017-04-15T03:00:29.085Z,58.43
2017-04-15T03:00:55.578Z,58.22
2017-04-15T03:01:19.290Z,58.44
2017-04-15T03:01:45.776Z,58.28
2017-04-15T03:02:07.562Z,58.40
2017-04-15T03:02:33.890Z,58.66
2017-04-15T03:03:09.777Z,58.69
2017-04-15T03:03:31.596Z,58.89
2017-04-15T03:04:09.562Z,58.92
2017-04-15T03:04:35.988Z,58.96
2017-04-15T03:04:57.689Z,58.95
2017-04-15T03:05:19.497Z,58.81
2017-04-15T03:05:43.826Z,58.63
2017-04-15T03:06:05.541Z,58.59
2017-04-15T03:06:32.236Z,58.86
2017-04-15T03:07:01.354Z,59.13
2017-04-15T03:07:27.853Z,59.45
2017-04-15T03:07:52.700Z,59.39
2017-04-15T03:08:23.872Z,59.36
2017-04-15T03:08:45.584Z,59.58
2017-04-15T03:09:07.273Z,59.77
2017-04-15T03:09:29.012Z,59.84
2017-04-15T03:09:55.353Z,59.43
2017-04-15T03:10:17.160Z,59.06
2017-04-15T03:10:40.853Z,58.76
2017-04-15T03:11:07.536Z,59.01
2017-04-15T03:11:29.264Z,58.87
2017-04-15T03:11:55.151Z,58.93
2017-04-15T03:12:18.922Z,59.07
2017-04-15T03:12:40.637Z,59.17
2017-04-15T03:13:14.763Z,59.10
2017-04-15T03:13:36.335Z,59.29
2017-04-15T03:13:58.157Z,59.24
2017-04-15T03:14:19.960Z,59.38
2017-04-15T03:14:43.975Z,59.29
2017-04-15T03:15:19.999Z,59.19
2017-04-15T03:15:48.802Z,59.09
2017-04-15T03:16:12.850Z,59.11
2017-04-15T03:16:34.690Z,58.91
2017-04-15T03:17:05.955Z,58.75
2017-04-15T03:17:29.806Z,58.75
2017-04-15T03:18:01.057Z,58.73
2017-04-15T03:18:32.663Z,58.90
2017-04-15T03:18:54.380Z,58.98
2017-04-15T03:19:25.661Z,59.24
2017-04-15T03:19:54.833Z,59.52
2017-04-15T03:20:19.537Z,59.60
2017-04-15T03:20:46.038Z,59.74
2017-04-15T03:21:53.441Z,59.71
2017-04-15T03:23:03.513Z,59.57
2017-04-15T03:23:25.149Z,59.94
2017-04-15T03:23:51.698Z,59.95
2017-04-15T03:24:15.426Z,59.92
2017-04-15T03:24:37.144Z,60.03
2017-04-15T03:25:49.235Z,60.23
2017-04-15T03:26:12.997Z,60.37
2017-04-15T03:26:40.037Z,60.17
2017-04-15T03:27:04.178Z,60.30
2017-04-15T03:27:35.147Z,60.09
2017-04-15T03:28:39.831Z,59.78
2017-04-15T03:29:58.864Z,59.86
2017-04-15T03:30:23.243Z,59.79
2017-04-15T03:30:44.890Z,59.75
2017-04-15T03:31:16.373Z,59.81
2017-04-15T03:31:40.114Z,59.98
2017-04-15T03:32:09.293Z,60.17
2017-04-15T03:32:33.993Z,60.12
2017-04-15T03:33:07.840Z,60.03
2017-04-15T03:34:26.209Z,59.97
2017-04-15T03:34:57.467Z,60.16
2017-04-15T03:35:19.291Z,60.29
2017-04-15T03:35:50.542Z,60.20
2017-04-15T03:36:28.242Z,60.13
2017-04-15T03:36:55.561Z,59.89
2017-04-15T03:37:24.658Z,60.06
2017-04-15T03:37:56.819Z,60.00
2017-04-15T03:38:18.601Z,59.98
2017-04-15T03:38:48.017Z,59.94
2017-04-15T03:39:12.361Z,59.60
2017-04-15T03:39:41.242Z,59.43
2017-04-15T03:40:14.458Z,59.17
2017-04-15T03:40:40.752Z,59.14
2017-04-15T03:41:09.359Z,59.11
2017-04-15T03:41:35.233Z,58.79
2017-04-15T03:42:05.586Z,58.75
2017-04-15T03:42:34.137Z,58.94
2017-04-15T03:43:00.836Z,59.16
2017-04-15T03:43:27.304Z,58.98
2017-04-15T03:43:49.136Z,58.94
2017-04-15T03:44:51.665Z,58.98
2017-04-15T03:45:21.134Z,58.62
2017-04-15T03:45:45.557Z,58.98
2017-04-15T03:46:17.363Z,59.18
2017-04-15T03:46:53.329Z,59.83
2017-04-15T03:47:15.103Z,59.91
2017-04-15T03:47:39.498Z,59.93
2017-04-15T03:48:08.879Z,59.68
2017-04-15T03:48:40.353Z,59.90
2017-04-15T03:49:04.493Z,59.80
2017-04-15T03:49:33.322Z,59.98
2017-04-15T03:51:14.555Z,60.19
2017-04-15T03:51:38.245Z,60.04
2017-04-15T03:52:06.239Z,60.05
2017-04-15T03:52:37.478Z,60.17
2017-04-15T03:52:59.291Z,60.22
2017-04-15T03:53:25.879Z,60.14
2017-04-15T03:53:47.597Z,60.34
2017-04-15T03:54:14.186Z,60.32
2017-04-15T03:54:40.692Z,60.48
2017-04-15T03:55:55.527Z,60.32
2017-04-15T03:56:28.842Z,60.19
2017-04-15T03:56:50.681Z,60.13
2017-04-15T03:57:27.045Z,60.47
2017-04-15T03:57:53.560Z,60.35
2017-04-15T03:58:20.033Z,60.70
2017-04-15T03:58:44.029Z,60.69
2017-04-15T03:59:17.592Z,60.62
2017-04-15T03:59:48.982Z,60.38
2017-04-15T04:00:13.099Z,60.27
2017-04-15T04:00:50.250Z,60.39
2017-04-15T04:01:14.062Z,60.38
2017-04-15T04:01:40.616Z,60.25
2017-04-15T04:02:12.789Z,60.22
2017-04-15T04:02:34.438Z,60.32
2017-04-15T04:03:33.058Z,60.04
2017-04-15T04:04:33.648Z,60.16
2017-04-15T04:04:59.474Z,60.02
2017-04-15T04:05:32.847Z,59.80
2017-04-15T04:05:56.574Z,59.86
2017-04-15T04:06:23.799Z,60.25
2017-04-15T04:06:55.443Z,60.18
2017-04-15T04:07:29.262Z,60.21
2017-04-15T04:07:56.045Z,60.34
2017-04-15T04:08:27.971Z,60.39
2017-04-15T04:08:57.359Z,60.69
2017-04-15T04:09:28.612Z,60.89
2017-04-15T04:09:52.557Z,61.18
2017-04-15T04:10:14.413Z,61.09
2017-04-15T04:10:36.155Z,60.77
2017-04-15T04:11:02.651Z,60.74
2017-04-15T04:11:32.050Z,60.48
2017-04-15T04:12:41.777Z,60.33
2017-04-15T04:13:20.112Z,60.12
2017-04-15T04:13:46.435Z,60.09
2017-04-15T04:14:17.620Z,60.15
2017-04-15T04:14:50.760Z,60.74
2017-04-15T04:15:12.372Z,60.69
2017-04-15T04:15:37.419Z,60.38
2017-04-15T04:16:06.134Z,60.44
2017-04-15T04:16:33.095Z,60.83
2017-04-15T04:17:01.481Z,60.93
2017-04-15T04:18:04.029Z,61.16
2017-04-15T04:19:09.220Z,60.43
2017-04-15T04:20:16.906Z,59.77
2017-04-15T04:22:32.813Z,60.74
2017-04-15T04:22:59.391Z,60.63
2017-04-15T04:24:08.685Z,60.84
2017-04-15T04:24:30.329Z,60.86
2017-04-15T04:24:56.826Z,60.93
2017-04-15T04:25:20.537Z,60.85
2017-04-15T04:25:47.095Z,60.55
2017-04-15T04:26:11.410Z,60.67
2017-04-15T04:26:46.303Z,60.58
2017-04-15T04:27:13.619Z,60.28
2017-04-15T04:27:44.800Z,60.21
2017-04-15T04:28:11.293Z,60.12
2017-04-15T04:28:38.717Z,59.95
2017-04-15T04:29:09.700Z,60.22
2017-04-15T04:29:38.832Z,60.46
2017-04-15T04:30:05.308Z,60.66
2017-04-15T04:30:37.224Z,60.84
2017-04-15T04:31:11.118Z,61.06
2017-04-15T04:32:27.710Z,60.61
2017-04-15T04:32:47.519Z,60.68
2017-04-15T04:33:22.027Z,60.77
2017-04-15T04:33:48.706Z,60.91
2017-04-15T04:34:45.973Z,60.92
2017-04-15T04:35:14.990Z,60.91
2017-04-15T04:35:41.736Z,61.03
2017-04-15T04:36:38.977Z,61.27
2017-04-15T04:37:02.698Z,61.15
2017-04-15T04:37:36.618Z,61.13
2017-04-15T04:37:59.787Z,61.10
2017-04-15T04:38:33.353Z,60.85
2017-04-15T04:38:59.097Z,60.80
2017-04-15T04:39:30.537Z,60.46
2017-04-15T04:40:36.024Z,60.17
2017-04-15T04:41:00.680Z,60.67
2017-04-15T04:41:26.520Z,60.75
2017-04-15T04:41:57.901Z,60.40
2017-04-15T04:42:22.043Z,60.42
2017-04-15T04:42:50.620Z,60.40
2017-04-15T04:43:28.524Z,60.66
2017-04-15T04:43:56.735Z,60.83
2017-04-15T04:44:24.003Z,60.86
2017-04-15T04:44:48.536Z,60.56
2017-04-15T04:45:20.340Z,60.65
2017-04-15T04:45:42.118Z,60.68
2017-04-15T04:46:08.059Z,60.88
2017-04-15T04:46:32.413Z,61.35
2017-04-15T04:47:03.700Z,61.66
2017-04-15T04:47:34.155Z,61.77
2017-04-15T04:48:00.424Z,61.49
2017-04-15T04:49:03.583Z,60.98
2017-04-15T04:49:34.680Z,61.34
2017-04-15T04:50:03.467Z,61.43
2017-04-15T04:50:36.805Z,61.44
2017-04-15T04:51:03.290Z,61.28
2017-04-15T04:51:35.557Z,61.08
2017-04-15T04:52:04.404Z,60.86
2017-04-15T04:52:36.244Z,62.24
2017-04-15T04:53:10.156Z,62.26
2017-04-15T04:54:25.452Z,61.40
2017-04-15T04:55:38.721Z,61.21
2017-04-15T04:56:55.971Z,61.19
2017-04-15T04:57:18.850Z,61.01
2017-04-15T04:57:50.716Z,61.03
2017-04-15T04:58:19.458Z,61.19
2017-04-15T04:58:51.375Z,61.34
2017-04-15T04:59:24.744Z,61.12
2017-04-15T04:59:56.108Z,61.76
2017-04-15T05:01:07.458Z,61.54
2017-04-15T05:01:29.245Z,61.46
2017-04-15T05:01:58.559Z,61.28
2017-04-15T05:02:20.264Z,61.08
2017-04-15T05:02:41.968Z,61.20
2017-04-15T05:03:18.604Z,61.66
2017-04-15T05:04:27.261Z,61.86
2017-04-15T05:04:55.102Z,61.73
2017-04-15T05:05:26.268Z,61.62
2017-04-15T05:05:53.800Z,61.89
2017-04-15T05:06:18.143Z,61.71
2017-04-15T05:06:46.562Z,61.70
2017-04-15T05:07:19.401Z,61.91
2017-04-15T05:07:45.659Z,62.04
2017-04-15T05:08:09.552Z,62.01
2017-04-15T05:08:40.518Z,61.72
2017-04-15T05:09:09.251Z,61.87
2017-04-15T05:09:35.724Z,62.00
2017-04-15T05:10:18.448Z,61.96
2017-04-15T05:10:42.297Z,61.92
2017-04-15T05:11:08.496Z,61.80
2017-04-15T05:11:34.840Z,61.69
2017-04-15T05:11:58.783Z,61.63
2017-04-15T05:12:27.937Z,61.53
2017-04-15T05:12:59.381Z,61.44
2017-04-15T05:13:26.855Z,61.48
2017-04-15T05:13:53.204Z,61.64
2017-04-15T05:15:01.174Z,61.57
2017-04-15T05:15:27.691Z,61.51
2017-04-15T05:16:05.673Z,61.77
2017-04-15T05:16:30.409Z,61.92
2017-04-15T05:16:54.732Z,61.97
2017-04-15T05:17:28.086Z,62.40
2017-04-15T05:18:28.855Z,62.10
2017-04-15T05:18:55.100Z,62.19
2017-04-15T05:19:28.037Z,62.11
2017-04-15T05:19:54.277Z,62.47
2017-04-15T05:20:18.029Z,62.23
2017-04-15T05:20:44.050Z,62.19
2017-04-15T05:21:05.797Z,62.08
2017-04-15T05:22:14.941Z,62.39
2017-04-15T05:22:41.284Z,62.30
2017-04-15T05:23:09.744Z,62.27
2017-04-15T05:23:44.095Z,62.42
2017-04-15T05:24:05.717Z,62.18
2017-04-15T05:24:27.405Z,62.11
2017-04-15T05:25:01.075Z,62.22
2017-04-15T05:25:36.009Z,62.15
2017-04-15T05:26:01.867Z,62.01
2017-04-15T05:26:35.702Z,62.57
2017-04-15T05:27:06.105Z,62.53
2017-04-15T05:27:27.767Z,62.40
2017-04-15T05:27:54.270Z,62.22
2017-04-15T05:28:21.006Z,62.16
2017-04-15T05:28:49.373Z,61.94
2017-04-15T05:29:15.723Z,62.08
2017-04-15T05:29:37.477Z,61.85
2017-04-15T05:29:59.181Z,61.78
2017-04-15T05:31:08.740Z,61.22
2017-04-15T05:31:33.117Z,61.07
2017-04-15T05:32:05.000Z,61.38
2017-04-15T05:32:36.283Z,61.35
2017-04-15T05:33:08.184Z,61.27
2017-04-15T05:33:35.030Z,61.82
2017-04-15T05:33:59.318Z,61.46
2017-04-15T05:34:28.471Z,61.56
2017-04-15T05:35:00.036Z,61.09
2017-04-15T05:35:28.961Z,60.72
2017-04-15T05:36:03.026Z,61.17
2017-04-15T05:36:24.772Z,61.27
2017-04-15T05:37:00.574Z,61.39
2017-04-15T05:37:36.778Z,61.26
2017-04-15T05:38:28.377Z,61.67
2017-04-15T05:39:39.776Z,61.36
2017-04-15T05:40:03.777Z,61.75
2017-04-15T05:40:35.065Z,61.72
2017-04-15T05:41:10.939Z,61.50
2017-04-15T05:41:37.359Z,61.17
2017-04-15T05:42:08.472Z,61.34
2017-04-15T05:42:37.074Z,61.89
2017-04-15T05:43:08.320Z,61.72
2017-04-15T05:43:42.780Z,61.51
2017-04-15T05:44:09.023Z,62.16
2017-04-15T05:45:11.513Z,62.15
2017-04-15T05:46:14.177Z,62.96
2017-04-15T05:46:47.461Z,62.86
2017-04-15T05:47:21.380Z,62.89
2017-04-15T05:47:45.533Z,62.72
2017-04-15T05:48:19.634Z,62.48
2017-04-15T05:48:48.459Z,62.24
2017-04-15T05:49:15.631Z,61.89
2017-04-15T05:49:47.232Z,61.55
2017-04-15T05:50:16.537Z,61.64
2017-04-15T05:50:38.359Z,61.45
2017-04-15T05:51:02.671Z,61.43
2017-04-15T05:52:14.006Z,61.41
2017-04-15T05:52:47.311Z,61.20
2017-04-15T05:53:21.315Z,61.09
2017-04-15T05:53:55.565Z,61.27
2017-04-15T05:54:26.772Z,61.35
2017-04-15T05:54:53.834Z,61.71
2017-04-15T05:55:22.357Z,61.94
2017-04-15T05:55:53.724Z,61.73
2017-04-15T05:56:20.024Z,61.58
2017-04-15T05:56:49.338Z,61.59
2017-04-15T05:57:16.033Z,61.48
2017-04-15T05:57:45.859Z,61.38
2017-04-15T05:58:10.172Z,61.19
2017-04-15T05:58:34.495Z,60.88
2017-04-15T05:59:04.374Z,60.70
2017-04-15T05:59:40.160Z,60.96
2017-04-15T06:00:07.087Z,61.13
2017-04-15T06:00:38.090Z,61.73
2017-04-15T06:01:18.317Z,62.30
2017-04-15T06:02:20.445Z,62.17
2017-04-15T06:02:52.113Z,62.02
2017-04-15T06:04:35.285Z,62.04
2017-04-15T06:05:45.036Z,61.92
2017-04-15T06:07:25.944Z,62.23
2017-04-15T06:07:47.993Z,62.78
2017-04-15T06:08:12.245Z,62.85
2017-04-15T06:08:39.808Z,62.75
2017-04-15T06:09:10.917Z,62.36
2017-04-15T06:09:46.719Z,62.07
2017-04-15T06:10:20.559Z,62.10
2017-04-15T06:10:54.947Z,62.08
2017-04-15T06:11:27.279Z,61.81
2017-04-15T06:11:56.206Z,62.13
2017-04-15T06:12:22.512Z,62.03
2017-04-15T06:13:29.173Z,61.92
2017-04-15T06:13:55.605Z,61.90
2017-04-15T06:14:19.935Z,62.03
2017-04-15T06:14:41.790Z,61.98